Archival Weather

Chicago O'Hare International

Chicago, Illinois (KORD)

Report from: Saturday, March 31, 2012 4:15 AM CDT
Current time: Monday, June 17, 2024 4:23 AM CDT

Current weather – Weather history – Daily summaries
Weather forecast

Temperature4.0°C (39.2°F)
Wind chill0.6°C (33.0°F)
Dew point1.0°C (33.8°F)
Winds 8 kts (4.1 m/s, 9.2 mph) East-Northeast (60°)
Visibility10 mi. (16.1 km)
Clouds Ceiling: Overcast 1,000 ft. (305 m)
Altimeter29.96 in.Hg (1015 mB)
Relative humidity81 %
Density altitude-1,278 ft. (-390 m)
Remarks System requires maintenance
Special weather observation
Automated weather observing station with precipitation discriminator
Flight conditions Marginal Visual Meteorological Conditions
Raw data2012-03-31 09:15 KORD 310915Z 06008KT 10SM OVC010 04/01 A2996 RMK AO2 $ SPECI
An error has occurred. This application may no longer respond until reloaded. Reload 🗙